Terminal Aerodrome Forecast
Issued by NWS

Home | Current Version | Previous Version | Text Only | Print | Product List | Glossary On
Versions: 1 2 3 4 5 6 7 8 9 10 11 12 13 14 15 16 17 18 19 20 21 22 23 24 25 26 27 28
000
FTUS41 KBUF 160200 AAA
TAFJHW
TAF AMD
KJHW 160238Z 1603/1624 35003KT P6SM SCT027 BKN045 OVC060
      TEMPO 1604/1605 3SM RA OVC018
     FM160500 00000KT 3SM RA BKN012 OVC025
     FM160600 00000KT 5SM -RA BR BKN003 OVC025
     FM160800 VRB03KT 6SM -SHRA BKN003 BKN025
     FM161000 29004KT P6SM BKN003 BKN025
     FM161400 34007KT P6SM BKN035 BKN100
     FM161600 35007KT P6SM BKN250
     FM162000 31008KT P6SM FEW250
      AMD LTD TO CLD VIS AND WIND=

USA.gov is the U.S. government's official web portal to all federal, state and local government web resources and services.